Time;durP1;ratioP1;P1;durP2;ratioP2;P2;SDS_P1;SDS_P2;PMS_P1;PMS_P2;Temp;Humidity;BMP_temperature;BMP_pressure;BME280_temperature;BME280_humidity;BME280_pressure;Samples;Min_cycle;Max_cycle;Signal;HPM_P1;HPM_P2
2023/04/29 00:00:05;;;;;;;37.33;23.73;;;10.10;99.90;;;;;;5090825;28;20403;-64
2023/04/29 00:02:32;;;;;;;37.60;22.90;;;10.10;99.90;;;;;;5090490;28;20109;-63
2023/04/29 00:04:58;;;;;;;32.03;21.70;;;10.00;99.90;;;;;;5091004;28;20080;-64
2023/04/29 00:07:24;;;;;;;36.38;22.42;;;10.10;99.90;;;;;;5090543;28;20048;-63
2023/04/29 00:09:51;;;;;;;33.90;22.42;;;10.00;99.90;;;;;;5090949;28;20048;-63
2023/04/29 00:12:17;;;;;;;33.47;21.90;;;10.00;99.90;;;;;;5072230;28;20120;-64
2023/04/29 00:14:44;;;;;;;38.88;23.27;;;9.90;99.90;;;;;;5072806;28;20052;-64
2023/04/29 00:17:10;;;;;;;36.03;23.10;;;10.00;99.90;;;;;;5090938;28;20055;-64
2023/04/29 00:19:36;;;;;;;31.83;19.52;;;10.00;99.90;;;;;;5090710;28;20159;-63
2023/04/29 00:22:03;;;;;;;27.20;19.02;;;10.00;99.90;;;;;;5090196;28;20086;-63
2023/04/29 00:24:29;;;;;;;33.97;22.27;;;10.00;99.90;;;;;;5090211;28;20451;-63
2023/04/29 00:26:55;;;;;;;30.55;20.02;;;10.10;99.90;;;;;;5089312;28;20147;-65
2023/04/29 00:29:22;;;;;;;30.88;20.20;;;10.00;99.90;;;;;;5072400;28;20445;-64
2023/04/29 00:31:49;;;;;;;29.85;19.27;;;10.10;99.90;;;;;;5090249;28;20083;-63
2023/04/29 00:34:15;;;;;;;27.65;18.73;;;10.00;99.90;;;;;;5090017;28;20042;-63
2023/04/29 00:36:41;;;;;;;30.17;19.60;;;10.10;99.90;;;;;;5072336;28;20091;-64
2023/04/29 00:39:07;;;;;;;27.52;19.75;;;10.10;99.90;;;;;;5090525;28;20091;-63
2023/04/29 00:41:34;;;;;;;32.05;20.58;;;10.00;99.90;;;;;;5072600;28;20129;-63
2023/04/29 00:44:01;;;;;;;31.95;19.75;;;10.10;99.90;;;;;;5090039;28;20052;-64
2023/04/29 00:46:27;;;;;;;32.70;20.20;;;10.10;99.90;;;;;;5090095;28;20076;-64
2023/04/29 00:48:53;;;;;;;26.45;18.83;;;10.10;99.90;;;;;;5090801;28;20048;-63
2023/04/29 00:51:20;;;;;;;26.80;19.42;;;10.00;99.90;;;;;;5090358;28;20086;-62
2023/04/29 00:53:46;;;;;;;25.42;18.77;;;9.90;99.90;;;;;;5089867;28;20127;-63
2023/04/29 00:56:14;;;;;;;31.65;19.20;;;10.00;99.90;;;;;;5090093;28;20440;-63
2023/04/29 00:58:48;;;;;;;29.02;19.05;;;9.80;99.90;;;;;;5090454;28;20095;-63
2023/04/29 01:01:18;;;;;;;27.38;19.13;;;10.00;99.90;;;;;;5090366;28;20067;-63
2023/04/29 01:03:45;;;;;;;25.05;16.77;;;9.90;99.90;;;;;;5071589;28;20111;-63
2023/04/29 01:06:35;;;;;;;27.60;18.13;;;9.80;99.90;;;;;;5071570;28;20075;-63
2023/04/29 01:09:20;;;;;;;29.42;19.40;;;9.80;99.90;;;;;;5089981;28;20063;-64
2023/04/29 01:12:05;;;;;;;27.65;18.90;;;9.90;99.90;;;;;;5090062;28;20109;-63
2023/04/29 01:14:33;;;;;;;28.20;17.70;;;9.90;99.90;;;;;;5090149;28;20054;-64
2023/04/29 01:17:05;;;;;;;27.77;18.35;;;9.80;99.90;;;;;;5071431;28;20040;-64
2023/04/29 01:19:54;;;;;;;26.58;17.42;;;9.80;99.90;;;;;;5089816;28;20048;-64
2023/04/29 01:22:21;;;;;;;24.98;17.38;;;9.80;99.90;;;;;;5071378;28;20195;-63
2023/04/29 01:24:48;;;;;;;27.25;20.35;;;9.80;99.90;;;;;;5071734;28;20381;-63
2023/04/29 01:27:36;;;;;;;28.38;18.60;;;9.80;99.90;;;;;;5106293;28;20066;-63
2023/04/29 01:30:05;;;;;;;28.15;18.30;;;9.80;99.90;;;;;;5091972;28;20056;-64
2023/04/29 01:32:52;;;;;;;26.63;17.63;;;9.80;99.90;;;;;;5109571;28;20560;-63
2023/04/29 01:35:32;;;;;;;27.85;17.92;;;9.80;99.90;;;;;;5109952;28;20094;-64
2023/04/29 01:38:12;;;;;;;29.75;18.45;;;9.90;99.90;;;;;;5112750;28;20047;-64
2023/04/29 01:40:58;;;;;;;25.98;17.95;;;9.80;99.90;;;;;;5114116;28;20123;-63
2023/04/29 01:43:29;;;;;;;27.05;16.85;;;9.90;99.90;;;;;;5113406;28;20051;-63
2023/04/29 01:45:56;;;;;;;27.98;17.65;;;9.80;99.90;;;;;;5113679;28;20052;-63
2023/04/29 01:48:23;;;;;;;28.17;17.48;;;9.90;99.90;;;;;;5113597;28;20387;-64
2023/04/29 01:50:50;;;;;;;24.67;16.50;;;9.90;99.90;;;;;;5113712;28;20109;-63
2023/04/29 01:53:16;;;;;;;27.75;18.35;;;9.80;99.90;;;;;;5113636;28;20075;-63
2023/04/29 01:55:42;;;;;;;25.50;16.05;;;9.80;99.90;;;;;;5113266;28;20043;-63
2023/04/29 01:58:10;;;;;;;27.83;16.65;;;9.80;99.90;;;;;;5113835;28;20121;-64
2023/04/29 02:00:37;;;;;;;28.42;17.20;;;9.90;99.90;;;;;;5113534;28;20391;-64
2023/04/29 02:03:04;;;;;;;26.00;16.95;;;9.80;99.90;;;;;;5113110;28;20074;-63
2023/04/29 02:05:32;;;;;;;23.80;15.73;;;9.80;99.90;;;;;;5095063;28;20075;-64
2023/04/29 02:07:59;;;;;;;23.67;15.63;;;9.90;99.90;;;;;;5095262;28;20079;-63
2023/04/29 02:10:26;;;;;;;26.75;16.48;;;9.80;99.90;;;;;;5113284;28;20090;-63
2023/04/29 02:12:53;;;;;;;26.50;17.17;;;9.70;99.90;;;;;;5112639;28;20426;-63
2023/04/29 02:15:20;;;;;;;27.45;17.98;;;9.80;99.90;;;;;;5113112;28;20490;-63
2023/04/29 02:17:46;;;;;;;26.40;17.83;;;9.80;99.90;;;;;;5113154;28;20096;-63
2023/04/29 02:20:12;;;;;;;23.83;16.35;;;9.80;99.90;;;;;;5113507;28;20058;-64
2023/04/29 02:22:39;;;;;;;26.52;16.88;;;9.70;99.90;;;;;;5113126;28;20397;-64
2023/04/29 02:25:05;;;;;;;24.98;16.35;;;9.70;99.90;;;;;;5095254;28;20054;-63
2023/04/29 02:27:32;;;;;;;26.67;17.17;;;9.80;99.90;;;;;;5094411;28;20135;-63
2023/04/29 02:29:58;;;;;;;26.83;17.23;;;9.70;99.90;;;;;;5113293;28;20198;-63
2023/04/29 02:32:25;;;;;;;25.42;17.10;;;9.80;99.90;;;;;;5112485;28;20432;-63
2023/04/29 02:34:51;;;;;;;27.67;17.00;;;9.70;99.90;;;;;;5112866;28;20126;-63
2023/04/29 02:37:17;;;;;;;25.23;16.90;;;9.80;99.90;;;;;;5112439;28;20443;-63
2023/04/29 02:39:44;;;;;;;26.85;17.38;;;9.80;99.90;;;;;;5112833;28;20096;-64
2023/04/29 02:42:10;;;;;;;31.98;18.40;;;9.70;99.90;;;;;;5112555;28;20190;-64
2023/04/29 02:44:37;;;;;;;27.75;16.77;;;9.70;99.90;;;;;;5094635;28;20124;-64
2023/04/29 02:47:03;;;;;;;26.00;17.02;;;9.80;99.90;;;;;;5112314;28;20076;-64
2023/04/29 02:49:29;;;;;;;30.42;17.73;;;9.70;99.90;;;;;;5111692;28;20071;-63
2023/04/29 02:51:57;;;;;;;29.95;18.90;;;9.70;99.90;;;;;;5112021;28;20492;-63
2023/04/29 02:54:23;;;;;;;30.25;18.58;;;9.60;99.90;;;;;;5112739;28;20131;-63
2023/04/29 02:56:49;;;;;;;27.48;16.55;;;9.60;99.90;;;;;;5093837;28;20044;-63
2023/04/29 02:59:16;;;;;;;27.52;16.75;;;9.60;99.90;;;;;;5112318;28;20449;-63
2023/04/29 03:01:42;;;;;;;28.30;16.33;;;9.70;99.90;;;;;;5112645;28;20051;-63
2023/04/29 03:04:08;;;;;;;28.05;16.45;;;9.70;99.90;;;;;;5112536;28;20130;-63
2023/04/29 03:06:35;;;;;;;26.50;18.40;;;9.60;99.90;;;;;;5112019;28;20113;-63
2023/04/29 03:09:01;;;;;;;27.08;16.63;;;9.60;99.90;;;;;;5112455;28;20043;-63
2023/04/29 03:11:27;;;;;;;27.92;16.70;;;9.60;99.90;;;;;;5112330;28;20052;-63
2023/04/29 03:13:54;;;;;;;22.15;15.38;;;9.60;99.90;;;;;;5111965;28;20130;-64
2023/04/29 03:16:20;;;;;;;26.77;16.58;;;9.70;99.90;;;;;;5112041;28;20122;-63
2023/04/29 03:18:47;;;;;;;28.35;16.08;;;9.50;99.90;;;;;;5112299;28;20093;-64
2023/04/29 03:21:14;;;;;;;30.15;16.48;;;9.60;99.90;;;;;;5112024;28;20066;-63
2023/04/29 03:23:40;;;;;;;26.55;15.93;;;9.60;99.90;;;;;;5110544;28;20124;-64
2023/04/29 03:26:06;;;;;;;29.58;15.85;;;9.60;99.90;;;;;;5115316;27;20489;-65
2023/04/29 03:28:32;;;;;;;23.90;15.57;;;9.50;99.90;;;;;;5112061;28;20446;-62
2023/04/29 03:30:59;;;;;;;24.60;15.07;;;9.50;99.90;;;;;;5093744;28;20047;-63
2023/04/29 03:33:25;;;;;;;26.95;17.10;;;9.50;99.90;;;;;;5111678;28;20055;-64
2023/04/29 03:35:51;;;;;;;26.55;15.80;;;9.40;99.90;;;;;;5111843;27;20488;-63
2023/04/29 03:38:18;;;;;;;22.70;16.55;;;9.50;99.90;;;;;;5132286;27;20051;-64
2023/04/29 03:40:45;;;;;;;25.42;16.48;;;9.20;99.90;;;;;;5114066;27;20051;-63
2023/04/29 03:43:12;;;;;;;23.17;14.77;;;9.40;99.90;;;;;;5131749;27;20046;-63
2023/04/29 03:45:39;;;;;;;23.65;16.27;;;9.40;99.90;;;;;;5132330;27;20047;-64
2023/04/29 03:48:05;;;;;;;22.52;14.23;;;9.30;99.90;;;;;;5111803;27;20108;-62
2023/04/29 03:50:31;;;;;;;24.13;15.52;;;9.40;99.90;;;;;;5111159;28;20359;-63
2023/04/29 03:52:58;;;;;;;21.80;16.00;;;9.30;99.90;;;;;;5111049;28;20379;-64
2023/04/29 03:55:24;;;;;;;23.77;14.77;;;9.30;99.90;;;;;;5093510;28;20055;-63
2023/04/29 03:57:51;;;;;;;24.85;15.18;;;9.40;99.90;;;;;;5106659;28;20051;-63
2023/04/29 04:00:17;;;;;;;25.27;15.40;;;9.40;99.90;;;;;;5111293;28;20059;-63
2023/04/29 04:02:44;;;;;;;22.52;14.88;;;9.40;99.90;;;;;;5109621;28;20043;-64
2023/04/29 04:05:10;;;;;;;22.63;15.55;;;9.40;99.90;;;;;;5113449;27;20051;-63
2023/04/29 04:07:36;;;;;;;26.25;15.23;;;9.40;99.90;;;;;;5115808;27;20112;-64
2023/04/29 04:10:02;;;;;;;27.23;16.13;;;9.30;99.90;;;;;;5092913;28;20052;-63
2023/04/29 04:12:29;;;;;;;28.15;16.60;;;9.30;99.90;;;;;;5110949;28;20500;-64
2023/04/29 04:14:55;;;;;;;22.90;15.40;;;9.30;99.90;;;;;;5111094;28;20047;-64
2023/04/29 04:17:22;;;;;;;27.55;16.88;;;9.30;99.90;;;;;;5123923;27;20090;-64
2023/04/29 04:19:48;;;;;;;26.77;16.23;;;9.30;99.90;;;;;;5131260;27;20354;-63
2023/04/29 04:22:15;;;;;;;29.65;16.10;;;9.30;99.90;;;;;;5112686;27;20047;-63
2023/04/29 04:24:42;;;;;;;27.08;16.58;;;9.30;99.90;;;;;;5131502;27;20138;-64
2023/04/29 04:27:08;;;;;;;27.92;14.98;;;9.30;99.90;;;;;;5101071;28;20527;-65
2023/04/29 04:29:35;;;;;;;27.40;15.93;;;9.20;99.90;;;;;;5092778;28;20447;-64
2023/04/29 04:32:02;;;;;;;29.00;16.77;;;9.20;99.90;;;;;;5110465;28;20044;-64
2023/04/29 04:34:28;;;;;;;27.52;16.13;;;9.30;99.90;;;;;;5092271;28;20116;-64
2023/04/29 04:36:54;;;;;;;24.70;15.50;;;9.20;99.90;;;;;;5110173;28;20479;-64
2023/04/29 04:39:21;;;;;;;30.35;15.75;;;9.30;99.90;;;;;;5110163;28;20081;-63
2023/04/29 04:41:47;;;;;;;22.75;14.43;;;9.30;99.90;;;;;;5095462;27;20487;-64
2023/04/29 04:44:13;;;;;;;26.05;16.63;;;9.30;99.90;;;;;;5131657;27;20047;-65
2023/04/29 04:46:41;;;;;;;25.75;15.38;;;9.30;99.90;;;;;;5105792;28;20043;-65
2023/04/29 04:49:07;;;;;;;27.27;17.15;;;9.30;99.90;;;;;;5110754;28;20431;-63
2023/04/29 04:51:33;;;;;;;26.10;15.43;;;9.30;99.90;;;;;;5109804;28;20059;-64
2023/04/29 04:54:00;;;;;;;25.00;14.55;;;9.30;99.90;;;;;;5111065;28;20150;-64
2023/04/29 04:56:26;;;;;;;22.48;14.88;;;9.30;99.90;;;;;;5115290;28;20074;-64
2023/04/29 04:58:52;;;;;;;27.58;15.68;;;9.40;99.90;;;;;;5113154;28;20075;-64
2023/04/29 05:01:18;;;;;;;29.00;18.17;;;9.40;99.90;;;;;;5131354;28;20336;-64
2023/04/29 05:03:45;;;;;;;27.27;16.30;;;9.30;99.90;;;;;;5112846;28;20478;-64
2023/04/29 05:06:11;;;;;;;29.02;18.02;;;9.40;99.90;;;;;;5127790;28;20149;-63
2023/04/29 05:08:38;;;;;;;28.80;16.02;;;9.30;99.90;;;;;;5110530;28;20467;-65
2023/04/29 05:11:04;;;;;;;25.98;16.55;;;9.40;99.90;;;;;;5110594;28;20481;-63
2023/04/29 05:13:32;;;;;;;25.88;15.18;;;9.40;99.90;;;;;;5114094;28;20094;-64
2023/04/29 05:16:02;;;;;;;26.52;14.75;;;9.40;99.90;;;;;;5114498;28;20398;-63
2023/04/29 05:18:28;;;;;;;25.35;15.10;;;9.40;99.90;;;;;;5114721;28;20047;-64
2023/04/29 05:20:54;;;;;;;25.17;15.23;;;9.50;99.90;;;;;;5114505;28;20061;-64
2023/04/29 05:23:21;;;;;;;27.33;17.10;;;9.50;99.90;;;;;;5116437;27;20047;-64
2023/04/29 05:25:48;;;;;;;21.75;14.32;;;9.60;99.90;;;;;;5134579;27;20058;-65
2023/04/29 05:28:14;;;;;;;24.10;14.90;;;9.50;99.90;;;;;;5114527;28;20090;-64
2023/04/29 05:30:40;;;;;;;24.23;14.35;;;9.50;99.90;;;;;;5096169;28;20402;-64
2023/04/29 05:33:07;;;;;;;24.35;14.32;;;9.60;99.90;;;;;;5095784;28;20062;-64
2023/04/29 05:35:33;;;;;;;23.02;13.75;;;9.60;99.90;;;;;;5096641;28;20047;-63
2023/04/29 05:37:59;;;;;;;24.50;14.23;;;9.60;99.90;;;;;;5110905;28;20145;-64
2023/04/29 05:40:26;;;;;;;22.38;13.35;;;9.70;99.90;;;;;;5114478;28;20224;-64
2023/04/29 05:42:52;;;;;;;22.20;14.60;;;9.60;99.90;;;;;;5112470;28;20491;-64
2023/04/29 05:45:18;;;;;;;22.13;14.02;;;9.60;99.90;;;;;;5114403;28;20463;-63
2023/04/29 05:47:45;;;;;;;22.33;12.88;;;9.60;99.90;;;;;;5100407;28;20147;-64
2023/04/29 05:50:11;;;;;;;22.63;14.25;;;9.60;99.90;;;;;;5095936;28;20069;-64
2023/04/29 05:52:38;;;;;;;23.38;13.70;;;9.60;99.90;;;;;;5100946;27;20051;-64
2023/04/29 05:55:04;;;;;;;23.85;15.52;;;9.70;99.90;;;;;;5105504;27;20426;-63
2023/04/29 05:57:31;;;;;;;21.52;13.18;;;9.70;99.90;;;;;;5121879;27;20090;-63
2023/04/29 05:59:58;;;;;;;20.83;11.95;;;9.90;99.90;;;;;;5122687;27;20118;-64
2023/04/29 06:02:25;;;;;;;18.23;11.48;;;9.80;99.90;;;;;;5094478;28;20075;-64
2023/04/29 06:04:52;;;;;;;20.90;12.38;;;10.00;99.90;;;;;;5113374;28;20040;-65
2023/04/29 06:07:18;;;;;;;19.75;13.05;;;9.90;99.90;;;;;;5112841;27;20372;-64
2023/04/29 06:09:45;;;;;;;22.98;11.82;;;10.00;99.90;;;;;;5123862;27;20039;-64
2023/04/29 06:12:11;;;;;;;14.32;10.63;;;10.00;99.90;;;;;;5123370;27;20051;-63
2023/04/29 06:14:37;;;;;;;24.58;13.32;;;10.00;99.90;;;;;;5120269;27;20098;-64
2023/04/29 06:17:03;;;;;;;22.77;14.25;;;10.10;99.90;;;;;;5102806;27;20416;-64
2023/04/29 06:19:31;;;;;;;22.52;15.02;;;10.20;99.90;;;;;;5123497;27;20039;-63
2023/04/29 06:21:57;;;;;;;16.55;10.95;;;10.20;99.90;;;;;;5118468;27;20122;-63
2023/04/29 06:24:24;;;;;;;21.23;13.18;;;10.20;99.90;;;;;;5120050;27;20081;-64
2023/04/29 06:26:50;;;;;;;15.30;8.85;;;10.40;99.90;;;;;;5100382;27;20079;-64
2023/04/29 06:29:16;;;;;;;14.05;9.85;;;10.40;99.90;;;;;;5092665;28;20072;-63
2023/04/29 06:31:43;;;;;;;20.50;15.13;;;10.50;99.90;;;;;;5057645;28;20635;-62
2023/04/29 06:34:10;;;;;;;13.07;8.98;;;10.40;99.90;;;;;;5074566;28;20139;-63
2023/04/29 06:36:36;;;;;;;16.98;10.35;;;10.50;99.90;;;;;;5092275;28;20159;-63
2023/04/29 06:39:02;;;;;;;15.70;8.27;;;10.60;99.90;;;;;;5093145;28;20060;-64
2023/04/29 06:41:29;;;;;;;14.73;9.45;;;10.70;99.90;;;;;;5074019;28;20189;-63
2023/04/29 06:43:55;;;;;;;14.60;8.80;;;10.80;99.90;;;;;;5092563;28;20090;-64
2023/04/29 06:46:21;;;;;;;15.82;8.88;;;10.90;99.90;;;;;;5092426;28;20040;-64
2023/04/29 06:48:48;;;;;;;12.07;8.50;;;10.90;99.90;;;;;;5092773;28;20086;-64
2023/04/29 06:51:14;;;;;;;11.70;7.15;;;11.00;99.90;;;;;;5074787;28;20449;-64
2023/04/29 06:53:41;;;;;;;15.02;8.85;;;11.10;99.90;;;;;;5074171;28;20685;-63
2023/04/29 06:56:07;;;;;;;11.90;8.05;;;11.00;99.90;;;;;;5091646;28;20083;-64
2023/04/29 06:58:33;;;;;;;13.75;7.72;;;11.10;99.90;;;;;;5074154;28;20083;-64
2023/04/29 07:00:59;;;;;;;11.65;6.55;;;11.20;99.90;;;;;;5092364;28;20440;-64
2023/04/29 07:03:26;;;;;;;12.43;7.18;;;11.30;99.90;;;;;;5091762;28;20102;-64
2023/04/29 07:05:52;;;;;;;13.88;7.50;;;11.40;99.90;;;;;;5092240;28;20044;-64
2023/04/29 07:08:18;;;;;;;11.65;8.65;;;11.50;99.90;;;;;;5073657;28;20169;-63
2023/04/29 07:10:55;;;;;;;10.60;8.18;;;11.60;99.90;;;;;;5074079;28;20458;-65
2023/04/29 07:13:22;;;;;;;11.23;7.63;;;11.80;99.90;;;;;;5073607;28;20484;-63
2023/04/29 07:15:48;;;;;;;11.45;8.10;;;12.00;99.90;;;;;;5091307;28;20499;-64
2023/04/29 07:18:15;;;;;;;9.52;7.05;;;12.20;99.90;;;;;;5073502;28;20170;-64
2023/04/29 07:20:42;;;;;;;11.15;6.93;;;12.40;99.90;;;;;;5091160;28;20123;-64
2023/04/29 07:23:09;;;;;;;12.43;8.00;;;12.50;99.90;;;;;;5091078;28;20066;-64
2023/04/29 07:25:35;;;;;;;11.85;6.82;;;12.70;99.90;;;;;;5076539;28;20146;-64
2023/04/29 07:28:01;;;;;;;14.20;8.43;;;12.90;99.90;;;;;;5093393;28;20040;-64
2023/04/29 07:30:28;;;;;;;16.63;7.78;;;13.10;99.90;;;;;;5076885;28;20197;-65
2023/04/29 07:32:54;;;;;;;12.10;7.05;;;13.10;99.90;;;;;;5111712;28;20047;-64
2023/04/29 07:35:21;;;;;;;9.27;6.60;;;13.10;99.90;;;;;;5093582;28;20063;-64
2023/04/29 07:37:48;;;;;;;11.23;7.93;;;13.10;99.90;;;;;;5093421;28;20083;-64
2023/04/29 07:40:14;;;;;;;9.95;7.32;;;13.00;99.90;;;;;;5110865;28;20045;-64
2023/04/29 07:42:40;;;;;;;10.88;6.80;;;13.10;99.90;;;;;;5110795;28;20070;-64
2023/04/29 07:45:07;;;;;;;11.52;7.32;;;13.10;99.90;;;;;;5111334;28;20087;-64
2023/04/29 07:47:33;;;;;;;11.57;7.07;;;13.30;99.90;;;;;;5092686;28;20540;-65
2023/04/29 07:50:00;;;;;;;11.23;6.82;;;13.40;99.90;;;;;;5092910;28;20071;-64
2023/04/29 07:52:26;;;;;;;11.68;7.03;;;13.50;99.90;;;;;;5103515;27;20040;-64
2023/04/29 07:54:55;;;;;;;9.77;6.93;;;13.50;99.90;;;;;;5096609;27;20039;-64
2023/04/29 07:57:21;;;;;;;12.13;6.57;;;13.60;99.90;;;;;;5112745;27;20059;-64
2023/04/29 07:59:52;;;;;;;13.15;7.95;;;13.70;99.90;;;;;;5113282;27;20047;-64
2023/04/29 08:02:19;;;;;;;11.52;7.28;;;13.80;99.90;;;;;;5131108;27;20035;-64
2023/04/29 08:04:45;;;;;;;9.93;7.55;;;13.80;99.90;;;;;;5113002;27;20043;-64
2023/04/29 08:07:12;;;;;;;8.48;6.70;;;13.80;99.90;;;;;;5113274;27;20085;-64
2023/04/29 08:09:38;;;;;;;10.45;6.65;;;13.80;99.90;;;;;;5132101;27;20054;-64
2023/04/29 08:12:04;;;;;;;12.25;7.70;;;13.90;99.90;;;;;;5112953;27;20093;-63
2023/04/29 08:14:30;;;;;;;10.82;6.57;;;14.00;99.90;;;;;;5131805;27;20066;-63
2023/04/29 08:16:57;;;;;;;9.75;7.13;;;14.00;99.90;;;;;;5131648;27;20424;-64
2023/04/29 08:19:23;;;;;;;11.35;8.38;;;14.10;99.90;;;;;;5113367;27;20057;-64
2023/04/29 08:21:50;;;;;;;11.80;7.25;;;14.00;99.90;;;;;;5112844;27;20071;-64
2023/04/29 08:24:17;;;;;;;11.25;7.30;;;14.10;99.90;;;;;;5112726;27;20096;-63
2023/04/29 08:26:43;;;;;;;11.38;7.18;;;13.90;99.90;;;;;;5116827;27;20047;-63
2023/04/29 08:29:09;;;;;;;11.00;7.88;;;14.10;99.90;;;;;;5131526;27;20116;-63
2023/04/29 08:31:35;;;;;;;10.38;7.43;;;14.10;99.90;;;;;;5113131;27;20081;-64
2023/04/29 08:34:02;;;;;;;10.68;8.10;;;14.20;99.90;;;;;;5112392;27;20453;-63
2023/04/29 08:36:28;;;;;;;12.10;7.70;;;14.20;99.90;;;;;;5112850;27;20043;-63
2023/04/29 08:38:55;;;;;;;8.88;6.93;;;14.40;99.90;;;;;;5131126;27;20059;-65
2023/04/29 08:41:22;;;;;;;9.15;6.53;;;14.20;99.90;;;;;;5129630;27;20066;-64
2023/04/29 08:43:48;;;;;;;11.30;7.03;;;14.40;99.90;;;;;;5111815;27;20175;-63
2023/04/29 08:46:15;;;;;;;11.77;6.85;;;14.40;99.90;;;;;;5110923;28;20130;-64
2023/04/29 08:48:42;;;;;;;13.15;8.48;;;14.50;99.90;;;;;;5111771;27;20043;-63
2023/04/29 08:51:11;;;;;;;9.57;6.95;;;14.70;99.90;;;;;;5129943;27;20043;-63
2023/04/29 08:53:37;;;;;;;9.18;6.70;;;14.90;99.90;;;;;;5130550;28;20186;-64
2023/04/29 08:56:15;;;;;;;10.95;7.00;;;14.90;99.90;;;;;;5095830;28;20090;-64
2023/04/29 08:58:42;;;;;;;9.07;7.10;;;15.00;99.90;;;;;;5110826;28;20048;-64
2023/04/29 09:01:09;;;;;;;11.05;8.05;;;15.20;99.90;;;;;;5110062;28;20388;-63
2023/04/29 09:04:00;;;;;;;8.25;6.97;;;15.30;99.90;;;;;;5110833;28;20149;-63
2023/04/29 09:06:26;;;;;;;9.65;6.68;;;15.20;99.90;;;;;;5095809;28;20163;-64
2023/04/29 09:08:53;;;;;;;8.23;6.43;;;14.90;99.90;;;;;;5131526;28;20039;-63
2023/04/29 09:11:20;;;;;;;9.52;6.95;;;15.00;99.90;;;;;;5113038;28;20043;-64
2023/04/29 09:13:46;;;;;;;11.43;7.32;;;15.00;99.90;;;;;;5131327;28;20074;-64
2023/04/29 09:16:12;;;;;;;12.45;7.18;;;15.00;99.90;;;;;;5112785;28;20134;-63
2023/04/29 09:18:44;;;;;;;10.05;7.13;;;14.80;99.90;;;;;;5112713;28;20126;-64
2023/04/29 09:21:16;;;;;;;10.48;7.05;;;14.80;99.90;;;;;;5130557;28;20130;-63
2023/04/29 09:23:43;;;;;;;9.57;6.85;;;14.80;99.90;;;;;;5130980;28;20046;-63
2023/04/29 09:26:09;;;;;;;11.85;7.22;;;14.90;99.90;;;;;;5130331;28;20055;-64
2023/04/29 09:28:36;;;;;;;8.98;6.78;;;14.90;99.90;;;;;;5113217;28;20047;-64
2023/04/29 09:31:05;;;;;;;10.85;6.75;;;14.70;99.90;;;;;;5130850;28;20172;-64
2023/04/29 09:33:31;;;;;;;10.43;8.00;;;14.80;99.90;;;;;;5130715;28;20458;-63
2023/04/29 09:35:58;;;;;;;7.40;6.03;;;14.70;99.90;;;;;;5112284;28;20439;-64
2023/04/29 09:38:24;;;;;;;13.43;7.28;;;15.00;99.90;;;;;;5130708;28;20134;-64
2023/04/29 09:40:52;;;;;;;8.85;6.65;;;15.00;99.90;;;;;;5130560;28;20051;-64
2023/04/29 09:43:20;;;;;;;9.27;6.30;;;15.30;99.90;;;;;;5130599;28;20039;-63
2023/04/29 09:45:47;;;;;;;8.95;5.65;;;15.40;99.90;;;;;;5112822;28;20471;-63
2023/04/29 09:48:15;;;;;;;9.20;6.60;;;15.60;99.90;;;;;;5130604;28;20435;-64
2023/04/29 09:50:57;;;;;;;8.05;6.50;;;15.60;99.90;;;;;;5130672;28;20216;-63
2023/04/29 09:53:28;;;;;;;8.95;5.57;;;15.80;99.90;;;;;;5112177;28;20131;-63
2023/04/29 09:56:02;;;;;;;7.45;5.65;;;15.80;99.90;;;;;;5130663;28;20175;-64
2023/04/29 09:58:32;;;;;;;8.68;7.05;;;15.70;99.90;;;;;;5132219;27;20492;-64
2023/04/29 10:01:01;;;;;;;10.32;6.20;;;15.50;99.90;;;;;;5134163;27;20118;-64
2023/04/29 10:03:32;;;;;;;8.60;5.75;;;15.70;99.90;;;;;;5115872;27;20090;-64
2023/04/29 10:05:59;;;;;;;9.48;6.13;;;15.90;99.90;;;;;;5134008;27;20387;-63
2023/04/29 10:08:28;;;;;;;7.10;5.85;;;15.90;99.90;;;;;;5134004;27;20055;-64
2023/04/29 10:11:02;;;;;;;8.68;6.20;;;16.10;99.90;;;;;;5134411;27;20090;-64
2023/04/29 10:13:29;;;;;;;9.10;5.78;;;16.10;99.90;;;;;;5115845;27;20043;-62
2023/04/29 10:16:31;;;;;;;8.18;6.13;;;16.10;99.90;;;;;;5134034;27;20447;-64
2023/04/29 10:19:02;;;;;;;6.55;5.35;;;16.20;99.90;;;;;;5095167;28;20063;-64
2023/04/29 10:21:30;;;;;;;7.43;5.63;;;16.10;99.90;;;;;;5094926;28;20134;-64
2023/04/29 10:23:57;;;;;;;10.95;6.47;;;16.10;99.90;;;;;;5094989;28;20524;-64
2023/04/29 10:26:28;;;;;;;8.63;5.90;;;16.20;99.90;;;;;;5115528;27;20051;-64
2023/04/29 10:28:56;;;;;;;8.50;5.75;;;16.10;99.90;;;;;;5115669;27;20153;-64
2023/04/29 10:31:26;;;;;;;11.80;6.15;;;16.30;99.90;;;;;;5133406;27;20170;-63
2023/04/29 10:33:56;;;;;;;9.05;6.45;;;16.10;99.90;;;;;;5133915;27;20047;-63
2023/04/29 10:36:25;;;;;;;9.60;5.85;;;16.10;99.90;;;;;;5098937;27;20051;-64
2023/04/29 10:38:54;;;;;;;9.32;6.53;;;16.20;99.90;;;;;;5133571;27;20604;-63
2023/04/29 10:41:24;;;;;;;9.00;6.65;;;16.10;99.90;;;;;;5133401;27;20479;-64
2023/04/29 10:43:52;;;;;;;7.63;5.47;;;16.10;99.90;;;;;;5133626;27;20142;-64
2023/04/29 10:46:23;;;;;;;8.65;6.07;;;16.20;99.90;;;;;;5115152;27;20047;-64
2023/04/29 10:48:54;;;;;;;11.48;6.40;;;16.30;99.90;;;;;;5115561;27;20078;-65
2023/04/29 10:51:31;;;;;;;6.55;5.15;;;16.40;99.90;;;;;;5114936;27;20382;-63
2023/04/29 10:54:17;;;;;;;8.07;6.60;;;16.30;99.90;;;;;;5115060;27;20115;-62
2023/04/29 10:56:52;;;;;;;9.77;6.80;;;16.30;99.90;;;;;;5114891;27;20348;-63
2023/04/29 10:59:41;;;;;;;9.13;6.13;;;16.10;99.90;;;;;;5098738;27;20051;-63
2023/04/29 11:02:09;;;;;;;;;;;16.20;99.90;;;;;;5102341;27;20126;-63
2023/04/29 11:05:11;;;;;;;7.18;5.75;;;16.10;99.90;;;;;;5132892;27;20365;-64
2023/04/29 11:07:37;;;;;;;6.25;5.20;;;16.20;99.90;;;;;;5115129;27;20423;-64
2023/04/29 11:10:04;;;;;;;9.98;6.40;;;16.30;99.90;;;;;;5133245;27;20079;-64
2023/04/29 11:12:30;;;;;;;9.13;6.15;;;16.20;99.60;;;;;;5114853;27;20493;-64
2023/04/29 11:15:03;;;;;;;7.82;5.85;;;16.20;99.90;;;;;;5115402;27;20085;-64
2023/04/29 11:17:37;;;;;;;8.88;5.18;;;16.40;99.90;;;;;;5133164;27;20096;-64
2023/04/29 11:20:08;;;;;;;8.98;5.07;;;16.60;99.90;;;;;;5132923;27;20420;-64
2023/04/29 11:22:34;;;;;;;6.50;5.25;;;16.70;99.90;;;;;;5132345;27;20083;-64
2023/04/29 11:25:01;;;;;;;8.65;5.05;;;16.70;99.90;;;;;;5133205;27;20090;-64
2023/04/29 11:27:32;;;;;;;7.68;5.10;;;16.60;99.90;;;;;;5114131;27;20051;-64
2023/04/29 11:30:00;;;;;;;7.25;4.82;;;16.50;99.00;;;;;;5114393;27;20079;-63
2023/04/29 11:32:28;;;;;;;7.93;4.85;;;16.30;99.20;;;;;;5114298;27;20091;-64
2023/04/29 11:34:55;;;;;;;9.27;4.63;;;16.50;98.80;;;;;;5132692;27;20090;-64
2023/04/29 11:37:25;;;;;;;5.28;4.53;;;16.40;98.80;;;;;;5132276;27;20074;-62
2023/04/29 11:39:59;;;;;;;8.13;5.03;;;16.50;98.40;;;;;;5132616;27;20055;-62
2023/04/29 11:42:27;;;;;;;8.20;4.65;;;16.50;99.10;;;;;;5113972;27;20043;-64
2023/04/29 11:44:55;;;;;;;8.43;5.43;;;16.70;99.70;;;;;;5132460;27;20085;-64
2023/04/29 11:47:27;;;;;;;6.95;5.00;;;16.60;98.60;;;;;;5132389;27;20081;-64
2023/04/29 11:50:00;;;;;;;6.70;4.88;;;16.60;99.20;;;;;;5132355;27;20163;-64
2023/04/29 11:52:27;;;;;;;9.13;5.90;;;16.60;99.90;;;;;;5113816;27;20101;-64
2023/04/29 11:54:54;;;;;;;10.48;6.88;;;16.70;99.30;;;;;;5132487;27;20415;-64
2023/04/29 11:57:20;;;;;;;7.05;5.57;;;16.80;99.90;;;;;;5113600;27;20055;-63
2023/04/29 11:59:56;;;;;;;9.63;5.28;;;16.90;99.90;;;;;;5132326;27;20079;-64
2023/04/29 12:02:34;;;;;;;7.75;4.68;;;17.10;99.90;;;;;;5131255;27;20084;-64
2023/04/29 12:05:06;;;;;;;7.53;5.50;;;17.00;99.20;;;;;;5132126;27;20051;-64
2023/04/29 12:07:33;;;;;;;7.75;5.03;;;17.00;99.40;;;;;;5113623;27;20050;-64
2023/04/29 12:09:59;;;;;;;8.38;5.38;;;17.10;99.90;;;;;;5131883;27;20348;-64
2023/04/29 12:12:35;;;;;;;6.55;5.70;;;17.20;99.90;;;;;;5131614;27;20377;-64
2023/04/29 12:15:04;;;;;;;7.32;5.22;;;17.30;99.70;;;;;;5131960;27;20280;-65
2023/04/29 12:17:30;;;;;;;6.03;4.03;;;17.40;99.70;;;;;;5131517;27;20567;-64
2023/04/29 12:19:57;;;;;;;7.18;4.65;;;17.50;99.70;;;;;;5131775;27;20058;-64
2023/04/29 12:22:33;;;;;;;6.20;4.57;;;17.60;99.00;;;;;;5130250;27;20043;-63
2023/04/29 12:25:02;;;;;;;6.38;4.13;;;17.50;98.00;;;;;;5131959;27;20070;-65
2023/04/29 12:27:29;;;;;;;5.78;4.38;;;17.40;98.40;;;;;;5131163;27;20096;-64
2023/04/29 12:29:56;;;;;;;8.18;5.80;;;17.50;99.40;;;;;;5131558;27;20061;-64
2023/04/29 12:32:23;;;;;;;5.95;5.05;;;17.40;98.80;;;;;;5130875;27;20489;-64
2023/04/29 12:34:51;;;;;;;7.40;4.68;;;17.60;98.90;;;;;;5130908;27;20371;-62
2023/04/29 12:37:18;;;;;;;6.35;5.13;;;17.70;99.30;;;;;;5112993;27;20159;-63
2023/04/29 12:39:44;;;;;;;5.82;4.43;;;17.60;99.30;;;;;;5131034;27;20047;-63
2023/04/29 12:42:17;;;;;;;6.45;4.80;;;17.70;99.30;;;;;;5130856;27;20086;-62